Campinacu, Brazil
Current Conditions -  °F | °C
As of 10:00 AM on Monday 20 Oct 2014 (Local Time) from SBBR Reporting Station
Clear Clear  
Wind Chill: 82°   Ceiling: Unl
Heat Index: 82°   Visibility: 6mi
Dew Point: 57°   Wind: 13mph
Humidity: 42%   Direction: 190°S
Pressure: 30.12"   Gusts: NA
Location:  13.79°S, 48.57°W
Report Text: SBBR 201300Z 19011KT CAVOK 28/14 Q1020
Loading
Personal Weather Stations






























Interactive Weather Map
Tropical Storm Tracking
New forecast layout! Learn more

10-Day Weather Forecast

Advertisements
Track Severe Weather on mobile